sensor_id;sensor_type;location;lat;lon;timestamp;pressure;altitude;pressure_sealevel;temperature;humidity
70343;BME280;57767;42.068;24.752;2023-08-24T00:00:13;98820.13;;;25.96;45.77
70343;BME280;57767;42.068;24.752;2023-08-24T00:01:15;98825.19;;;25.97;46.24
70343;BME280;57767;42.068;24.752;2023-08-24T00:02:18;98819.13;;;25.92;47.48
70343;BME280;57767;42.068;24.752;2023-08-24T00:03:19;98820.06;;;25.87;46.26
70343;BME280;57767;42.068;24.752;2023-08-24T00:04:23;98816.84;;;25.85;46.41
70343;BME280;57767;42.068;24.752;2023-08-24T00:05:24;98824.66;;;25.87;46.64
70343;BME280;57767;42.068;24.752;2023-08-24T00:06:26;98825.47;;;25.87;46.36
70343;BME280;57767;42.068;24.752;2023-08-24T00:07:29;98826.75;;;25.90;47.49
70343;BME280;57767;42.068;24.752;2023-08-24T00:08:31;98829.16;;;25.91;48.66
70343;BME280;57767;42.068;24.752;2023-08-24T00:09:32;98839.69;;;25.93;47.96
70343;BME280;57767;42.068;24.752;2023-08-24T00:10:35;98831.56;;;25.93;46.04
70343;BME280;57767;42.068;24.752;2023-08-24T00:11:37;98831.56;;;25.93;44.87
70343;BME280;57767;42.068;24.752;2023-08-24T00:12:42;98827.09;;;25.97;44.48
70343;BME280;57767;42.068;24.752;2023-08-24T00:13:44;98827.44;;;25.95;44.48
70343;BME280;57767;42.068;24.752;2023-08-24T00:14:50;98837.63;;;25.98;44.03
70343;BME280;57767;42.068;24.752;2023-08-24T00:15:53;98823.94;;;25.95;44.06
70343;BME280;57767;42.068;24.752;2023-08-24T00:16:55;98830.31;;;25.99;44.87
70343;BME280;57767;42.068;24.752;2023-08-24T00:17:57;98826.81;;;25.98;44.17
70343;BME280;57767;42.068;24.752;2023-08-24T00:18:59;98831.75;;;25.96;44.38
70343;BME280;57767;42.068;24.752;2023-08-24T00:20:00;98828.06;;;25.92;45.30
70343;BME280;57767;42.068;24.752;2023-08-24T00:21:06;98824.84;;;25.90;45.38
70343;BME280;57767;42.068;24.752;2023-08-24T00:22:09;98829.78;;;25.88;45.54
70343;BME280;57767;42.068;24.752;2023-08-24T00:23:11;98831.69;;;25.88;45.85
70343;BME280;57767;42.068;24.752;2023-08-24T00:24:12;98823.25;;;25.89;45.21
70343;BME280;57767;42.068;24.752;2023-08-24T00:25:14;98821.81;;;25.83;45.50
70343;BME280;57767;42.068;24.752;2023-08-24T00:26:16;98824.97;;;25.85;45.58
70343;BME280;57767;42.068;24.752;2023-08-24T00:27:21;98817.66;;;25.86;46.33
70343;BME280;57767;42.068;24.752;2023-08-24T00:28:23;98820.38;;;25.86;46.58
70343;BME280;57767;42.068;24.752;2023-08-24T00:29:24;98801.03;;;25.70;45.81
70343;BME280;57767;42.068;24.752;2023-08-24T00:30:26;98819.09;;;25.83;45.24
70343;BME280;57767;42.068;24.752;2023-08-24T00:31:28;98813.19;;;25.81;45.61
70343;BME280;57767;42.068;24.752;2023-08-24T00:32:30;98821.00;;;25.83;44.93
70343;BME280;57767;42.068;24.752;2023-08-24T00:33:34;98817.81;;;25.81;45.38
70343;BME280;57767;42.068;24.752;2023-08-24T00:34:36;98825.31;;;25.84;46.47
70343;BME280;57767;42.068;24.752;2023-08-24T00:35:38;98822.09;;;25.82;46.58
70343;BME280;57767;42.068;24.752;2023-08-24T00:36:40;98820.19;;;25.82;46.83
70343;BME280;57767;42.068;24.752;2023-08-24T00:37:42;98803.09;;;25.73;48.64
70343;BME280;57767;42.068;24.752;2023-08-24T00:38:43;98822.09;;;25.82;47.56
70343;BME280;57767;42.068;24.752;2023-08-24T00:39:45;98818.09;;;25.79;47.58
70343;BME280;57767;42.068;24.752;2023-08-24T00:40:47;98817.00;;;25.80;47.11
70343;BME280;57767;42.068;24.752;2023-08-24T00:41:49;98814.91;;;25.77;46.38
70343;BME280;57767;42.068;24.752;2023-08-24T00:42:51;98817.31;;;25.79;46.60
70343;BME280;57767;42.068;24.752;2023-08-24T00:43:52;98817.13;;;25.75;46.82
70343;BME280;57767;42.068;24.752;2023-08-24T00:44:55;98814.72;;;25.74;47.46
70343;BME280;57767;42.068;24.752;2023-08-24T00:45:59;98813.44;;;25.71;46.97
70343;BME280;57767;42.068;24.752;2023-08-24T00:47:02;98811.84;;;25.70;46.53
70343;BME280;57767;42.068;24.752;2023-08-24T00:48:04;98814.06;;;25.68;46.85
70343;BME280;57767;42.068;24.752;2023-08-24T00:49:06;98807.66;;;25.64;45.94
70343;BME280;57767;42.068;24.752;2023-08-24T00:50:09;98808.47;;;25.64;46.99
70343;BME280;57767;42.068;24.752;2023-08-24T00:51:11;98809.56;;;25.63;47.35
70343;BME280;57767;42.068;24.752;2023-08-24T00:52:14;98802.03;;;25.60;46.46
70343;BME280;57767;42.068;24.752;2023-08-24T00:53:16;98809.06;;;25.61;46.17
70343;BME280;57767;42.068;24.752;2023-08-24T00:54:18;98814.75;;;25.60;48.78
70343;BME280;57767;42.068;24.752;2023-08-24T00:55:20;98817.44;;;25.60;47.99
70343;BME280;57767;42.068;24.752;2023-08-24T00:56:23;98812.38;;;25.58;46.30
70343;BME280;57767;42.068;24.752;2023-08-24T00:57:28;98808.88;;;25.58;46.89
70343;BME280;57767;42.068;24.752;2023-08-24T00:58:31;98811.06;;;25.56;46.55
70343;BME280;57767;42.068;24.752;2023-08-24T00:59:34;98805.28;;;25.49;47.17
70343;BME280;57767;42.068;24.752;2023-08-24T01:00:36;98814.03;;;25.46;46.50
70343;BME280;57767;42.068;24.752;2023-08-24T01:01:39;98816.41;;;25.47;46.85
70343;BME280;57767;42.068;24.752;2023-08-24T01:02:43;98808.63;;;25.46;46.51
70343;BME280;57767;42.068;24.752;2023-08-24T01:03:45;98813.63;;;25.39;46.65
70343;BME280;57767;42.068;24.752;2023-08-24T01:04:47;98814.53;;;25.34;47.82
70343;BME280;57767;42.068;24.752;2023-08-24T01:05:49;98810.88;;;25.30;47.33
70343;BME280;57767;42.068;24.752;2023-08-24T01:06:51;98798.06;;;25.22;47.32
70343;BME280;57767;42.068;24.752;2023-08-24T01:07:54;98805.88;;;25.23;47.17
70343;BME280;57767;42.068;24.752;2023-08-24T01:08:55;98796.00;;;25.19;47.17
70343;BME280;57767;42.068;24.752;2023-08-24T01:09:57;98813.47;;;25.21;46.78
70343;BME280;57767;42.068;24.752;2023-08-24T01:11:43;98810.91;;;25.16;47.68
70343;BME280;57767;42.068;24.752;2023-08-24T01:15:00;98802.25;;;24.78;48.33
70343;BME280;57767;42.068;24.752;2023-08-24T01:16:08;98805.63;;;24.84;48.61
70343;BME280;57767;42.068;24.752;2023-08-24T01:17:15;98803.63;;;24.76;47.63
70343;BME280;57767;42.068;24.752;2023-08-24T01:18:21;98796.75;;;24.70;47.65
70343;BME280;57767;42.068;24.752;2023-08-24T01:19:37;98801.66;;;24.68;47.89
70343;BME280;57767;42.068;24.752;2023-08-24T01:20:41;98805.44;;;24.67;47.63
70343;BME280;57767;42.068;24.752;2023-08-24T01:21:44;98808.66;;;24.69;47.32
70343;BME280;57767;42.068;24.752;2023-08-24T01:24:32;98810.72;;;24.85;47.17
70343;BME280;57767;42.068;24.752;2023-08-24T01:25:42;98813.31;;;24.90;47.12
70343;BME280;57767;42.068;24.752;2023-08-24T01:26:48;98811.66;;;24.94;45.89
70343;BME280;57767;42.068;24.752;2023-08-24T01:27:51;98811.84;;;24.98;46.96
70343;BME280;57767;42.068;24.752;2023-08-24T01:28:54;98830.13;;;25.01;47.86
70343;BME280;57767;42.068;24.752;2023-08-24T01:29:56;98819.53;;;25.05;47.64
70343;BME280;57767;42.068;24.752;2023-08-24T01:30:58;98820.84;;;25.07;48.53
70343;BME280;57767;42.068;24.752;2023-08-24T01:32:00;98824.00;;;25.09;50.23
70343;BME280;57767;42.068;24.752;2023-08-24T01:33:03;98812.75;;;25.07;48.91
70343;BME280;57767;42.068;24.752;2023-08-24T01:34:06;98812.09;;;25.10;49.24
70343;BME280;57767;42.068;24.752;2023-08-24T01:35:09;98811.13;;;25.06;49.61
70343;BME280;57767;42.068;24.752;2023-08-24T01:36:12;98817.75;;;25.00;49.72
70343;BME280;57767;42.068;24.752;2023-08-24T01:37:14;98806.56;;;24.93;48.80
70343;BME280;57767;42.068;24.752;2023-08-24T01:38:16;98806.72;;;24.96;48.64
70343;BME280;57767;42.068;24.752;2023-08-24T01:39:31;98811.34;;;24.96;48.37
70343;BME280;57767;42.068;24.752;2023-08-24T01:40:59;98809.44;;;24.96;48.47
70343;BME280;57767;42.068;24.752;2023-08-24T01:42:05;98804.34;;;24.95;48.85
70343;BME280;57767;42.068;24.752;2023-08-24T01:43:12;98801.66;;;24.95;48.65
70343;BME280;57767;42.068;24.752;2023-08-24T01:44:20;98803.22;;;24.96;47.52
70343;BME280;57767;42.068;24.752;2023-08-24T01:45:27;98810.44;;;25.01;47.81
70343;BME280;57767;42.068;24.752;2023-08-24T01:46:31;98812.84;;;25.02;47.06
70343;BME280;57767;42.068;24.752;2023-08-24T01:47:36;98810.72;;;24.99;47.68
70343;BME280;57767;42.068;24.752;2023-08-24T01:48:40;98813.94;;;25.01;48.63
70343;BME280;57767;42.068;24.752;2023-08-24T01:49:43;98812.84;;;25.02;49.11
70343;BME280;57767;42.068;24.752;2023-08-24T01:50:45;98811.84;;;24.98;48.56
70343;BME280;57767;42.068;24.752;2023-08-24T01:51:48;98801.53;;;24.86;48.50
70343;BME280;57767;42.068;24.752;2023-08-24T01:52:50;98799.75;;;24.82;48.41
70343;BME280;57767;42.068;24.752;2023-08-24T01:53:53;98803.94;;;24.74;48.61
70343;BME280;57767;42.068;24.752;2023-08-24T01:54:55;98806.75;;;24.69;49.42
70343;BME280;57767;42.068;24.752;2023-08-24T01:55:57;98809.13;;;24.71;49.99
70343;BME280;57767;42.068;24.752;2023-08-24T01:56:59;98805.63;;;24.70;49.63
70343;BME280;57767;42.068;24.752;2023-08-24T01:58:00;98798.44;;;24.66;49.34
70343;BME280;57767;42.068;24.752;2023-08-24T01:59:02;98796.44;;;24.57;49.38
70343;BME280;57767;42.068;24.752;2023-08-24T02:00:05;98795.34;;;24.58;50.40
70343;BME280;57767;42.068;24.752;2023-08-24T02:01:11;98798.03;;;24.58;49.93
70343;BME280;57767;42.068;24.752;2023-08-24T02:02:14;98794.25;;;24.59;50.60
70343;BME280;57767;42.068;24.752;2023-08-24T02:03:16;98800.44;;;24.60;50.49
70343;BME280;57767;42.068;24.752;2023-08-24T02:04:18;98793.16;;;24.60;50.06
70343;BME280;57767;42.068;24.752;2023-08-24T02:05:19;98794.16;;;24.64;49.02
70343;BME280;57767;42.068;24.752;2023-08-24T02:06:21;98802.75;;;24.67;49.99
70343;BME280;57767;42.068;24.752;2023-08-24T02:07:23;98796.56;;;24.66;49.01
70343;BME280;57767;42.068;24.752;2023-08-24T02:08:25;98802.75;;;24.67;48.61
70343;BME280;57767;42.068;24.752;2023-08-24T02:09:27;98801.66;;;24.68;48.89
70343;BME280;57767;42.068;24.752;2023-08-24T02:10:28;98804.06;;;24.69;49.28
70343;BME280;57767;42.068;24.752;2023-08-24T02:11:30;98797.22;;;24.72;48.76
70343;BME280;57767;42.068;24.752;2023-08-24T02:12:32;98794.53;;;24.72;48.99
70343;BME280;57767;42.068;24.752;2023-08-24T02:13:34;98800.06;;;24.67;48.51
70343;BME280;57767;42.068;24.752;2023-08-24T02:14:36;98796.34;;;24.62;49.90
70343;BME280;57767;42.068;24.752;2023-08-24T02:15:38;98792.53;;;24.63;49.41
70343;BME280;57767;42.068;24.752;2023-08-24T02:16:42;98795.44;;;24.67;49.49
70343;BME280;57767;42.068;24.752;2023-08-24T02:17:44;98798.66;;;24.69;50.11
70343;BME280;57767;42.068;24.752;2023-08-24T02:18:46;98799.47;;;24.70;49.72
70343;BME280;57767;42.068;24.752;2023-08-24T02:19:48;98795.16;;;24.69;49.31
70343;BME280;57767;42.068;24.752;2023-08-24T02:20:49;98802.16;;;24.70;48.43
70343;BME280;57767;42.068;24.752;2023-08-24T02:21:51;98800.56;;;24.69;48.72
70343;BME280;57767;42.068;24.752;2023-08-24T02:22:53;98797.34;;;24.67;48.59
70343;BME280;57767;42.068;24.752;2023-08-24T02:23:55;98798.94;;;24.68;49.06
70343;BME280;57767;42.068;24.752;2023-08-24T02:24:58;98795.97;;;24.69;49.76
70343;BME280;57767;42.068;24.752;2023-08-24T02:26:00;98794.06;;;24.70;49.33
70343;BME280;57767;42.068;24.752;2023-08-24T02:27:01;98790.66;;;24.64;48.97
70343;BME280;57767;42.068;24.752;2023-08-24T02:28:04;98801.66;;;24.68;49.10
70343;BME280;57767;42.068;24.752;2023-08-24T02:29:06;98794.16;;;24.64;48.10
70343;BME280;57767;42.068;24.752;2023-08-24T02:30:09;98792.34;;;24.60;48.43
70343;BME280;57767;42.068;24.752;2023-08-24T02:31:11;98790.94;;;24.62;48.59
70343;BME280;57767;42.068;24.752;2023-08-24T02:32:12;98793.66;;;24.62;47.67
70343;BME280;57767;42.068;24.752;2023-08-24T02:33:14;98789.94;;;24.58;48.61
70343;BME280;57767;42.068;24.752;2023-08-24T02:34:16;98793.16;;;24.60;48.90
70343;BME280;57767;42.068;24.752;2023-08-24T02:35:18;98795.03;;;24.60;49.75
70343;BME280;57767;42.068;24.752;2023-08-24T02:36:20;98798.97;;;24.54;49.36
70343;BME280;57767;42.068;24.752;2023-08-24T02:37:22;98788.75;;;24.51;49.03
70343;BME280;57767;42.068;24.752;2023-08-24T02:38:24;98791.16;;;24.52;49.78
70343;BME280;57767;42.068;24.752;2023-08-24T02:39:26;98798.16;;;24.53;49.90
70343;BME280;57767;42.068;24.752;2023-08-24T02:40:27;98799.25;;;24.52;48.96
70343;BME280;57767;42.068;24.752;2023-08-24T02:41:29;98801.97;;;24.52;48.28
70343;BME280;57767;42.068;24.752;2023-08-24T02:42:32;98791.44;;;24.51;48.82
70343;BME280;57767;42.068;24.752;2023-08-24T02:43:34;98796.56;;;24.52;49.08
70343;BME280;57767;42.068;24.752;2023-08-24T02:44:36;98797.34;;;24.53;49.11
70343;BME280;57767;42.068;24.752;2023-08-24T02:45:38;98797.16;;;24.49;48.25
70343;BME280;57767;42.068;24.752;2023-08-24T02:46:40;98800.16;;;24.48;49.73
70343;BME280;57767;42.068;24.752;2023-08-24T02:47:41;98791.25;;;24.47;50.33
70343;BME280;57767;42.068;24.752;2023-08-24T02:48:43;98791.44;;;24.51;48.30
70343;BME280;57767;42.068;24.752;2023-08-24T02:49:45;98793.25;;;24.55;47.89
70343;BME280;57767;42.068;24.752;2023-08-24T02:50:47;98799.75;;;24.54;47.79
70343;BME280;57767;42.068;24.752;2023-08-24T02:51:49;98794.88;;;24.56;47.43
70343;BME280;57767;42.068;24.752;2023-08-24T02:52:51;98802.34;;;24.59;47.36
70343;BME280;57767;42.068;24.752;2023-08-24T02:53:53;98811.53;;;24.58;48.64
70343;BME280;57767;42.068;24.752;2023-08-24T02:54:55;98805.16;;;24.54;48.71
70343;BME280;57767;42.068;24.752;2023-08-24T02:55:57;98802.47;;;24.54;48.92
70343;BME280;57767;42.068;24.752;2023-08-24T02:56:59;98811.94;;;24.52;48.76
70343;BME280;57767;42.068;24.752;2023-08-24T02:58:01;98798.53;;;24.47;49.63
70343;BME280;57767;42.068;24.752;2023-08-24T02:59:03;98801.53;;;24.45;50.00
70343;BME280;57767;42.068;24.752;2023-08-24T03:00:06;98792.16;;;24.43;50.31
70343;BME280;57767;42.068;24.752;2023-08-24T03:01:08;98798.16;;;24.40;49.75
70343;BME280;57767;42.068;24.752;2023-08-24T03:02:10;98796.84;;;24.37;49.88
70343;BME280;57767;42.068;24.752;2023-08-24T03:03:15;98796.03;;;24.37;49.93
70343;BME280;57767;42.068;24.752;2023-08-24T03:04:17;98799.53;;;24.37;50.27
70343;BME280;57767;42.068;24.752;2023-08-24T03:05:19;98794.16;;;24.37;51.01
70343;BME280;57767;42.068;24.752;2023-08-24T03:06:21;98794.16;;;24.37;50.77
70343;BME280;57767;42.068;24.752;2023-08-24T03:07:25;98793.34;;;24.37;50.19
70343;BME280;57767;42.068;24.752;2023-08-24T03:08:27;98797.44;;;24.34;50.37
70343;BME280;57767;42.068;24.752;2023-08-24T03:09:29;98792.03;;;24.34;50.72
70343;BME280;57767;42.068;24.752;2023-08-24T03:10:34;98790.44;;;24.33;51.04
70343;BME280;57767;42.068;24.752;2023-08-24T03:11:36;98788.38;;;24.30;49.93
70343;BME280;57767;42.068;24.752;2023-08-24T03:12:37;98774.66;;;24.26;49.87
70343;BME280;57767;42.068;24.752;2023-08-24T03:13:39;98785.66;;;24.30;50.17
70343;BME280;57767;42.068;24.752;2023-08-24T03:14:41;98791.06;;;24.30;50.79
70343;BME280;57767;42.068;24.752;2023-08-24T03:15:43;98791.34;;;24.28;49.90
70343;BME280;57767;42.068;24.752;2023-08-24T03:16:45;98793.75;;;24.30;50.34
70343;BME280;57767;42.068;24.752;2023-08-24T03:17:47;98787.13;;;24.22;51.10
70343;BME280;57767;42.068;24.752;2023-08-24T03:18:49;98797.09;;;24.22;50.43
70343;BME280;57767;42.068;24.752;2023-08-24T03:19:51;98790.41;;;24.19;49.55
70343;BME280;57767;42.068;24.752;2023-08-24T03:20:53;98796.03;;;24.23;49.87
70343;BME280;57767;42.068;24.752;2023-08-24T03:21:54;98798.72;;;24.23;50.11
70343;BME280;57767;42.068;24.752;2023-08-24T03:22:56;98794.13;;;24.23;50.60
70343;BME280;57767;42.068;24.752;2023-08-24T03:23:59;98791.69;;;24.22;50.16
70343;BME280;57767;42.068;24.752;2023-08-24T03:25:01;98797.94;;;24.22;50.38
70343;BME280;57767;42.068;24.752;2023-08-24T03:26:02;98801.44;;;24.23;50.18
70343;BME280;57767;42.068;24.752;2023-08-24T03:27:04;98804.69;;;24.20;50.33
70343;BME280;57767;42.068;24.752;2023-08-24T03:28:08;98803.88;;;24.19;49.55
70343;BME280;57767;42.068;24.752;2023-08-24T03:29:10;98805.50;;;24.20;49.56
70343;BME280;57767;42.068;24.752;2023-08-24T03:30:12;98806.59;;;24.19;51.16
70343;BME280;57767;42.068;24.752;2023-08-24T03:31:14;98809.09;;;24.16;51.33
70343;BME280;57767;42.068;24.752;2023-08-24T03:32:16;98808.88;;;24.12;51.07
70343;BME280;57767;42.068;24.752;2023-08-24T03:33:18;98798.97;;;24.08;50.70
70343;BME280;57767;42.068;24.752;2023-08-24T03:34:20;98812.56;;;24.03;50.36
70343;BME280;57767;42.068;24.752;2023-08-24T03:35:22;98810.63;;;23.89;50.92
70343;BME280;57767;42.068;24.752;2023-08-24T03:36:24;98811.72;;;23.88;50.96
70343;BME280;57767;42.068;24.752;2023-08-24T03:37:26;98808.69;;;23.76;51.33
70343;BME280;57767;42.068;24.752;2023-08-24T03:38:27;98807.16;;;23.70;51.02
70343;BME280;57767;42.068;24.752;2023-08-24T03:39:29;98810.16;;;23.69;51.49
70343;BME280;57767;42.068;24.752;2023-08-24T03:40:31;98804.00;;;23.68;51.21
70343;BME280;57767;42.068;24.752;2023-08-24T03:41:33;98810.38;;;23.72;51.88
70343;BME280;57767;42.068;24.752;2023-08-24T03:42:36;98803.19;;;23.68;52.03
70343;BME280;57767;42.068;24.752;2023-08-24T03:43:37;98813.97;;;23.68;51.63
70343;BME280;57767;42.068;24.752;2023-08-24T03:44:39;98810.38;;;23.72;51.47
70343;BME280;57767;42.068;24.752;2023-08-24T03:45:42;98816.00;;;23.76;51.92
70343;BME280;57767;42.068;24.752;2023-08-24T03:46:44;98811.97;;;23.73;51.38
70343;BME280;57767;42.068;24.752;2023-08-24T03:47:45;98818.91;;;23.79;51.54
70343;BME280;57767;42.068;24.752;2023-08-24T03:48:47;98821.59;;;23.79;52.12
70343;BME280;57767;42.068;24.752;2023-08-24T03:49:49;98820.50;;;23.80;51.82
70343;BME280;57767;42.068;24.752;2023-08-24T03:50:54;98826.38;;;23.82;51.65
70343;BME280;57767;42.068;24.752;2023-08-24T03:51:56;98822.31;;;23.85;51.50
70343;BME280;57767;42.068;24.752;2023-08-24T03:52:58;98829.00;;;23.87;51.43
70343;BME280;57767;42.068;24.752;2023-08-24T03:54:00;98828.72;;;23.89;51.47
70343;BME280;57767;42.068;24.752;2023-08-24T03:55:01;98828.19;;;23.87;51.92
70343;BME280;57767;42.068;24.752;2023-08-24T03:56:03;98835.94;;;23.93;53.16
70343;BME280;57767;42.068;24.752;2023-08-24T03:57:05;98837.50;;;23.94;53.87
70343;BME280;57767;42.068;24.752;2023-08-24T03:58:07;98835.13;;;23.93;53.90
70343;BME280;57767;42.068;24.752;2023-08-24T03:59:09;98833.22;;;23.93;53.28
70343;BME280;57767;42.068;24.752;2023-08-24T04:00:11;98827.84;;;23.93;53.32
70343;BME280;57767;42.068;24.752;2023-08-24T04:01:13;98832.91;;;23.95;52.65
70343;BME280;57767;42.068;24.752;2023-08-24T04:02:15;98836.41;;;23.96;53.07
70343;BME280;57767;42.068;24.752;2023-08-24T04:03:17;98831.31;;;23.94;52.68
70343;BME280;57767;42.068;24.752;2023-08-24T04:04:19;98828.44;;;23.90;53.62
70343;BME280;57767;42.068;24.752;2023-08-24T04:05:21;98838.13;;;23.91;53.97
70343;BME280;57767;42.068;24.752;2023-08-24T04:06:23;98838.63;;;23.93;53.25
70343;BME280;57767;42.068;24.752;2023-08-24T04:07:25;98835.59;;;23.95;53.87
70343;BME280;57767;42.068;24.752;2023-08-24T04:08:27;98838.00;;;23.97;54.44
70343;BME280;57767;42.068;24.752;2023-08-24T04:09:29;98829.41;;;23.94;54.37
70343;BME280;57767;42.068;24.752;2023-08-24T04:10:31;98825.03;;;23.99;55.00
70343;BME280;57767;42.068;24.752;2023-08-24T04:11:35;98837.44;;;24.00;54.84
70343;BME280;57767;42.068;24.752;2023-08-24T04:12:37;98833.81;;;23.90;55.40
70343;BME280;57767;42.068;24.752;2023-08-24T04:13:39;98830.03;;;23.91;56.17
70343;BME280;57767;42.068;24.752;2023-08-24T04:14:41;98822.59;;;23.83;56.29
70343;BME280;57767;42.068;24.752;2023-08-24T04:15:43;98821.59;;;23.79;56.09
70343;BME280;57767;42.068;24.752;2023-08-24T04:16:44;98822.41;;;23.80;56.30
70343;BME280;57767;42.068;24.752;2023-08-24T04:17:46;98824.00;;;23.81;56.80
70343;BME280;57767;42.068;24.752;2023-08-24T04:18:49;98817.94;;;23.70;57.41
70343;BME280;57767;42.068;24.752;2023-08-24T04:19:50;98829.75;;;23.74;57.71
70343;BME280;57767;42.068;24.752;2023-08-24T04:20:52;98822.75;;;23.73;57.79
70343;BME280;57767;42.068;24.752;2023-08-24T04:21:54;98821.16;;;23.72;57.11
70343;BME280;57767;42.068;24.752;2023-08-24T04:22:56;98824.66;;;23.73;56.91
70343;BME280;57767;42.068;24.752;2023-08-24T04:23:58;98832.53;;;23.69;57.29
70343;BME280;57767;42.068;24.752;2023-08-24T04:25:00;98824.09;;;23.57;56.70
70343;BME280;57767;42.068;24.752;2023-08-24T04:26:02;98831.59;;;23.60;56.08
70343;BME280;57767;42.068;24.752;2023-08-24T04:27:06;98832.91;;;23.63;57.15
70343;BME280;57767;42.068;24.752;2023-08-24T04:28:08;98840.13;;;23.67;57.37
70343;BME280;57767;42.068;24.752;2023-08-24T04:29:10;98834.22;;;23.65;57.27
70343;BME280;57767;42.068;24.752;2023-08-24T04:30:12;98841.94;;;23.72;56.46
70343;BME280;57767;42.068;24.752;2023-08-24T04:31:15;98834.75;;;23.67;56.33
70343;BME280;57767;42.068;24.752;2023-08-24T04:32:17;98842.94;;;23.76;57.76
70343;BME280;57767;42.068;24.752;2023-08-24T04:33:19;98842.94;;;23.76;57.76
70343;BME280;57767;42.068;24.752;2023-08-24T04:34:21;98838.88;;;23.78;58.34
70343;BME280;57767;42.068;24.752;2023-08-24T04:35:25;98832.16;;;23.76;56.57
70343;BME280;57767;42.068;24.752;2023-08-24T04:36:28;98838.25;;;23.81;56.91
70343;BME280;57767;42.068;24.752;2023-08-24T04:37:30;98833.56;;;23.73;53.65
70343;BME280;57767;42.068;24.752;2023-08-24T04:38:31;98831.88;;;23.77;54.22
70343;BME280;57767;42.068;24.752;2023-08-24T04:39:33;98840.31;;;23.89;55.10
70343;BME280;57767;42.068;24.752;2023-08-24T04:40:51;98843.03;;;24.03;57.44
70343;BME280;57767;42.068;24.752;2023-08-24T04:41:54;98840.38;;;24.17;61.20
70343;BME280;57767;42.068;24.752;2023-08-24T04:42:55;98848.81;;;24.29;57.95
70343;BME280;57767;42.068;24.752;2023-08-24T04:43:57;98845.03;;;24.44;60.48
70343;BME280;57767;42.068;24.752;2023-08-24T04:44:59;98838.84;;;24.57;59.75
70343;BME280;57767;42.068;24.752;2023-08-24T04:46:02;98840.44;;;24.72;57.99
70343;BME280;57767;42.068;24.752;2023-08-24T04:47:04;98847.13;;;24.88;57.74
70343;BME280;57767;42.068;24.752;2023-08-24T04:48:06;98850.06;;;25.05;59.38
70343;BME280;57767;42.068;24.752;2023-08-24T04:49:08;98841.63;;;25.20;59.65
70343;BME280;57767;42.068;24.752;2023-08-24T04:50:10;98851.47;;;25.39;58.16
70343;BME280;57767;42.068;24.752;2023-08-24T04:51:11;98842.53;;;25.52;55.54
70343;BME280;57767;42.068;24.752;2023-08-24T04:52:13;98850.50;;;25.71;54.27
70343;BME280;57767;42.068;24.752;2023-08-24T04:53:19;98851.06;;;25.81;54.27
70343;BME280;57767;42.068;24.752;2023-08-24T04:54:21;98849.09;;;25.95;52.69
70343;BME280;57767;42.068;24.752;2023-08-24T04:55:23;98854.41;;;26.09;52.35
70343;BME280;57767;42.068;24.752;2023-08-24T04:56:25;98860.72;;;26.27;49.70
70343;BME280;57767;42.068;24.752;2023-08-24T04:57:26;98853.84;;;26.43;47.08
70343;BME280;57767;42.068;24.752;2023-08-24T04:58:28;98853.09;;;26.60;48.32
70343;BME280;57767;42.068;24.752;2023-08-24T04:59:30;98859.38;;;26.77;48.03
70343;BME280;57767;42.068;24.752;2023-08-24T05:00:32;98851.44;;;26.90;44.99
70343;BME280;57767;42.068;24.752;2023-08-24T05:01:35;98860.59;;;27.02;45.78
70343;BME280;57767;42.068;24.752;2023-08-24T05:02:39;98861.91;;;27.22;46.36
70343;BME280;57767;42.068;24.752;2023-08-24T05:03:41;98855.22;;;27.37;47.02
70343;BME280;57767;42.068;24.752;2023-08-24T05:04:43;98863.88;;;27.56;46.51
70343;BME280;57767;42.068;24.752;2023-08-24T05:05:45;98856.84;;;27.72;45.69
70343;BME280;57767;42.068;24.752;2023-08-24T05:06:47;98859.53;;;27.90;44.71
70343;BME280;57767;42.068;24.752;2023-08-24T05:07:49;98866.22;;;28.09;45.55
70343;BME280;57767;42.068;24.752;2023-08-24T05:08:51;98863.97;;;28.29;44.62
70343;BME280;57767;42.068;24.752;2023-08-24T05:09:53;98869.81;;;28.48;43.13
70343;BME280;57767;42.068;24.752;2023-08-24T05:10:55;98866.22;;;28.65;44.89
70343;BME280;57767;42.068;24.752;2023-08-24T05:11:57;98859.94;;;28.81;43.95
70343;BME280;57767;42.068;24.752;2023-08-24T05:12:59;98864.63;;;29.02;42.64
70343;BME280;57767;42.068;24.752;2023-08-24T05:14:01;98866.13;;;29.20;42.53
70343;BME280;57767;42.068;24.752;2023-08-24T05:15:03;98872.38;;;29.41;43.70
70343;BME280;57767;42.068;24.752;2023-08-24T05:16:05;98865.03;;;29.63;42.48
70343;BME280;57767;42.068;24.752;2023-08-24T05:17:07;98873.81;;;29.80;40.48
70343;BME280;57767;42.068;24.752;2023-08-24T05:18:09;98847.69;;;29.88;42.09
70343;BME280;57767;42.068;24.752;2023-08-24T05:19:11;98868.88;;;30.15;41.13
70343;BME280;57767;42.068;24.752;2023-08-24T05:20:13;98869.81;;;30.32;39.95
70343;BME280;57767;42.068;24.752;2023-08-24T05:21:15;98877.69;;;30.45;38.54
70343;BME280;57767;42.068;24.752;2023-08-24T05:22:16;98868.75;;;30.57;39.16
70343;BME280;57767;42.068;24.752;2023-08-24T05:23:18;98868.28;;;30.67;37.99
70343;BME280;57767;42.068;24.752;2023-08-24T05:24:20;98872.72;;;30.84;36.46
70343;BME280;57767;42.068;24.752;2023-08-24T05:25:22;98865.69;;;30.95;37.56
70343;BME280;57767;42.068;24.752;2023-08-24T05:26:24;98871.13;;;31.07;37.89
70343;BME280;57767;42.068;24.752;2023-08-24T05:27:26;98862.50;;;31.17;35.97
70343;BME280;57767;42.068;24.752;2023-08-24T05:28:29;98870.66;;;31.29;35.25
70343;BME280;57767;42.068;24.752;2023-08-24T05:29:31;98870.22;;;31.40;35.75
70343;BME280;57767;42.068;24.752;2023-08-24T05:30:32;98869.59;;;31.46;37.52
70343;BME280;57767;42.068;24.752;2023-08-24T05:31:34;98868.78;;;31.58;34.60